createdAt,value
2018-11-25T00:01:17.935Z,6.80
2018-11-25T00:03:47.429Z,6.74
2018-11-25T00:06:16.923Z,6.80
2018-11-25T00:08:46.451Z,6.83
2018-11-25T00:11:16.011Z,6.87
2018-11-25T00:13:45.862Z,6.86
2018-11-25T00:16:15.352Z,6.88
2018-11-25T00:18:44.879Z,6.93
2018-11-25T00:21:14.391Z,6.88
2018-11-25T00:23:43.910Z,6.87
2018-11-25T00:26:14.043Z,6.90
2018-11-25T00:28:43.527Z,6.82
2018-11-25T00:31:12.979Z,6.77
2018-11-25T00:33:43.348Z,6.83
2018-11-25T00:36:12.868Z,6.79
2018-11-25T00:38:42.347Z,6.70
2018-11-25T00:41:12.540Z,6.76
2018-11-25T00:43:41.996Z,6.76
2018-11-25T00:46:11.501Z,6.73
2018-11-25T00:48:41.012Z,6.74
2018-11-25T00:51:10.463Z,6.73
2018-11-25T00:53:40.195Z,6.70
2018-11-25T00:56:09.408Z,6.71
2018-11-25T00:58:38.768Z,6.68
2018-11-25T01:01:08.004Z,6.60
2018-11-25T01:03:37.246Z,6.58
2018-11-25T01:06:06.968Z,6.48
2018-11-25T01:08:36.383Z,6.34
2018-11-25T01:11:06.320Z,6.24
2018-11-25T01:13:35.799Z,6.21
2018-11-25T01:16:05.516Z,6.25
2018-11-25T01:18:35.043Z,6.22
2018-11-25T01:21:04.563Z,5.85
2018-11-25T01:23:34.027Z,6.15
2018-11-25T01:26:03.548Z,6.11
2018-11-25T01:28:33.019Z,6.27
2018-11-25T01:31:02.727Z,6.36
2018-11-25T01:33:32.042Z,6.44
2018-11-25T01:36:01.577Z,6.49
2018-11-25T01:38:31.079Z,6.48
2018-11-25T01:41:01.197Z,6.37
2018-11-25T01:43:30.756Z,6.44
2018-11-25T01:46:00.787Z,6.34
2018-11-25T01:48:30.123Z,6.46
2018-11-25T01:50:59.681Z,6.37
2018-11-25T01:53:29.158Z,6.31
2018-11-25T01:55:58.606Z,6.36
2018-11-25T01:58:27.950Z,6.36
2018-11-25T02:00:57.636Z,6.31
2018-11-25T02:03:27.148Z,6.26
2018-11-25T02:05:56.704Z,6.31
2018-11-25T02:08:26.180Z,6.36
2018-11-25T02:10:55.667Z,6.37
2018-11-25T02:13:25.175Z,6.42
2018-11-25T02:15:54.600Z,6.39
2018-11-25T02:18:24.232Z,6.42
2018-11-25T02:20:53.713Z,6.42
2018-11-25T02:23:23.012Z,6.49
2018-11-25T02:25:52.948Z,6.50
2018-11-25T02:28:22.424Z,6.51
2018-11-25T02:30:51.908Z,6.50
2018-11-25T02:33:21.676Z,6.47
2018-11-25T02:35:51.090Z,6.41
2018-11-25T02:38:20.323Z,6.44
2018-11-25T02:40:49.536Z,6.54
2018-11-25T02:43:18.745Z,6.40
2018-11-25T02:45:48.119Z,6.41
2018-11-25T02:48:18.263Z,6.30
2018-11-25T02:50:47.747Z,6.22
2018-11-25T02:53:17.235Z,6.24
2018-11-25T02:55:47.132Z,6.36
2018-11-25T02:58:16.440Z,6.52
2018-11-25T03:00:45.973Z,6.41
2018-11-25T03:03:15.482Z,6.35
2018-11-25T03:05:44.959Z,6.38
2018-11-25T03:08:14.672Z,6.34
2018-11-25T03:10:44.199Z,6.40
2018-11-25T03:13:14.922Z,6.30
2018-11-25T03:15:44.472Z,6.44
2018-11-25T03:18:14.138Z,6.33
2018-11-25T03:20:44.463Z,6.28
2018-11-25T03:23:13.801Z,6.31
2018-11-25T03:25:43.291Z,6.31
2018-11-25T03:28:13.089Z,6.28
2018-11-25T03:30:42.479Z,6.27
2018-11-25T03:33:12.004Z,6.35
2018-11-25T03:35:41.503Z,6.44
2018-11-25T03:38:11.039Z,6.46
2018-11-25T03:40:40.485Z,6.35
2018-11-25T03:43:10.024Z,6.37
2018-11-25T03:45:39.495Z,6.28
2018-11-25T03:48:08.798Z,6.27
2018-11-25T03:50:38.124Z,6.21
2018-11-25T03:53:07.579Z,6.32
2018-11-25T03:55:37.159Z,6.36
2018-11-25T03:58:06.962Z,6.40
2018-11-25T04:00:36.329Z,6.37
2018-11-25T04:03:05.839Z,6.44
2018-11-25T04:05:35.340Z,6.36
2018-11-25T04:08:04.914Z,6.41
2018-11-25T04:10:34.994Z,6.37
2018-11-25T04:13:04.506Z,6.32
2018-11-25T04:15:33.974Z,6.34
2018-11-25T04:18:03.208Z,6.29
2018-11-25T04:20:32.465Z,6.26
2018-11-25T04:23:01.863Z,6.43
2018-11-25T04:25:31.092Z,6.41
2018-11-25T04:28:00.280Z,6.31
2018-11-25T04:30:29.803Z,6.30
2018-11-25T04:33:00.176Z,6.34
2018-11-25T04:35:29.640Z,6.31
2018-11-25T04:37:59.128Z,6.27
2018-11-25T04:40:28.659Z,6.35
2018-11-25T04:42:58.619Z,6.33
2018-11-25T04:45:28.035Z,6.23
2018-11-25T04:47:57.551Z,6.23
2018-11-25T04:50:27.061Z,6.13
2018-11-25T04:52:56.576Z,6.14
2018-11-25T04:55:25.788Z,6.49
2018-11-25T04:57:55.135Z,6.49
2018-11-25T05:00:24.341Z,6.69
2018-11-25T05:02:53.959Z,6.64
2018-11-25T05:05:23.896Z,6.67
2018-11-25T05:07:53.202Z,6.81
2018-11-25T05:10:22.504Z,6.81
2018-11-25T05:12:51.985Z,6.72
2018-11-25T05:15:22.687Z,6.74
2018-11-25T05:17:52.324Z,6.77
2018-11-25T05:20:22.352Z,6.74
2018-11-25T05:22:51.559Z,6.73
2018-11-25T05:25:21.116Z,6.62
2018-11-25T05:27:50.640Z,6.78
2018-11-25T05:30:21.215Z,6.79
2018-11-25T05:32:50.491Z,6.73
2018-11-25T05:35:21.002Z,6.66
2018-11-25T05:37:50.516Z,6.78
2018-11-25T05:40:20.000Z,6.75
2018-11-25T05:42:49.355Z,6.82
2018-11-25T05:45:19.889Z,6.73
2018-11-25T05:47:49.356Z,6.71
2018-11-25T05:50:19.634Z,6.72
2018-11-25T05:52:48.869Z,6.67
2018-11-25T05:55:18.283Z,6.79
2018-11-25T05:57:47.763Z,6.66
2018-11-25T06:00:24.115Z,6.78
2018-11-25T06:02:53.560Z,6.93
2018-11-25T06:05:23.079Z,6.87
2018-11-25T06:07:52.628Z,6.84
2018-11-25T06:10:22.265Z,6.87
2018-11-25T06:12:52.449Z,6.78
2018-11-25T06:15:21.888Z,6.83
2018-11-25T06:17:51.371Z,6.70
2018-11-25T06:20:20.708Z,6.85
2018-11-25T06:22:50.199Z,6.75
2018-11-25T06:25:21.039Z,6.66
2018-11-25T06:27:50.491Z,6.65
2018-11-25T06:30:20.808Z,6.72
2018-11-25T06:32:50.438Z,6.83
2018-11-25T06:35:20.596Z,6.85
2018-11-25T06:37:50.104Z,6.87
2018-11-25T06:40:20.856Z,7.06
2018-11-25T06:42:50.146Z,7.18
2018-11-25T06:45:24.894Z,7.37
2018-11-25T06:47:55.321Z,6.99
2018-11-25T06:50:24.792Z,6.89
2018-11-25T06:52:54.328Z,6.86
2018-11-25T06:55:23.807Z,6.84
2018-11-25T06:57:53.722Z,6.69
2018-11-25T07:00:25.196Z,6.67
2018-11-25T07:02:55.033Z,6.57
2018-11-25T07:05:24.485Z,6.48
2018-11-25T07:07:53.958Z,6.45
2018-11-25T07:10:23.744Z,6.41
2018-11-25T07:12:54.639Z,6.47
2018-11-25T07:15:24.161Z,6.56
2018-11-25T07:17:53.453Z,6.49
2018-11-25T07:20:23.306Z,6.65
2018-11-25T07:22:54.123Z,6.51
2018-11-25T07:25:23.832Z,6.48
2018-11-25T07:27:53.736Z,6.80
2018-11-25T07:30:28.363Z,6.86
2018-11-25T07:32:57.853Z,6.48
2018-11-25T07:35:28.324Z,6.47
2018-11-25T07:37:58.111Z,6.37
2018-11-25T07:40:27.621Z,6.46
2018-11-25T07:43:02.432Z,6.60
2018-11-25T07:45:31.932Z,6.46
2018-11-25T07:48:01.451Z,6.42
2018-11-25T07:50:30.745Z,6.42
2018-11-25T07:53:00.297Z,6.38
2018-11-25T07:55:30.236Z,6.45
2018-11-25T07:57:59.676Z,6.57
2018-11-25T08:00:29.366Z,6.86
2018-11-25T08:02:58.887Z,6.63
2018-11-25T08:05:28.761Z,6.94
2018-11-25T08:07:58.308Z,7.02
2018-11-25T08:10:27.783Z,6.84
2018-11-25T08:12:57.531Z,6.70
2018-11-25T08:15:26.993Z,6.93
2018-11-25T08:17:56.603Z,6.83
2018-11-25T08:20:26.027Z,6.65
2018-11-25T08:22:55.628Z,6.49
2018-11-25T08:25:24.986Z,6.69
2018-11-25T08:27:54.336Z,6.73
2018-11-25T08:30:24.552Z,6.61
2018-11-25T08:32:54.176Z,6.63
2018-11-25T08:35:23.683Z,6.63
2018-11-25T08:37:52.915Z,6.82
2018-11-25T08:40:23.953Z,6.83
2018-11-25T08:42:54.018Z,6.74
2018-11-25T08:45:23.304Z,6.65
2018-11-25T08:47:53.240Z,6.64
2018-11-25T08:50:22.994Z,6.78
2018-11-25T08:52:53.299Z,6.79
2018-11-25T08:55:25.872Z,6.90
2018-11-25T08:57:55.692Z,6.94
2018-11-25T09:00:27.274Z,7.16
2018-11-25T09:02:57.562Z,7.20
2018-11-25T09:05:27.343Z,6.91
2018-11-25T09:07:56.883Z,6.84
2018-11-25T09:10:26.371Z,6.79
2018-11-25T09:12:57.309Z,6.79
2018-11-25T09:15:29.477Z,6.76
2018-11-25T09:17:59.620Z,6.73
2018-11-25T09:20:29.503Z,6.68
2018-11-25T09:22:59.021Z,6.65
2018-11-25T09:25:29.869Z,7.20
2018-11-25T09:28:00.716Z,7.38
2018-11-25T09:30:31.221Z,7.09
2018-11-25T09:33:00.732Z,7.09
2018-11-25T09:35:30.227Z,7.11
2018-11-25T09:38:00.035Z,6.95
2018-11-25T09:40:29.467Z,6.98
2018-11-25T09:42:58.962Z,6.93
2018-11-25T09:45:28.418Z,7.01
2018-11-25T09:47:59.205Z,7.04
2018-11-25T09:50:28.659Z,6.98
2018-11-25T09:52:58.384Z,7.20
2018-11-25T09:55:27.890Z,7.15
2018-11-25T09:58:01.172Z,6.99
2018-11-25T10:00:33.625Z,7.48
2018-11-25T10:03:04.052Z,7.20
2018-11-25T10:05:33.526Z,7.24
2018-11-25T10:08:03.026Z,7.27
2018-11-25T10:10:32.475Z,7.31
2018-11-25T10:13:02.037Z,7.24
2018-11-25T10:15:31.784Z,6.80
2018-11-25T10:18:01.727Z,6.95
2018-11-25T10:20:32.296Z,7.16
2018-11-25T10:23:01.703Z,7.44
2018-11-25T10:25:31.164Z,6.97
2018-11-25T10:28:01.269Z,7.06
2018-11-25T10:30:31.381Z,7.29
2018-11-25T10:33:06.328Z,7.55
2018-11-25T10:35:35.803Z,7.69
2018-11-25T10:38:05.709Z,7.66
2018-11-25T10:40:35.177Z,7.51
2018-11-25T10:43:04.723Z,7.42
2018-11-25T10:45:34.188Z,7.36
2018-11-25T10:48:03.687Z,7.37
2018-11-25T10:50:33.320Z,7.26
2018-11-25T10:53:02.560Z,7.14
2018-11-25T10:55:31.842Z,7.17
2018-11-25T10:58:01.275Z,7.12
2018-11-25T11:00:38.232Z,7.16
2018-11-25T11:03:14.422Z,7.21
2018-11-25T11:05:49.290Z,7.24
2018-11-25T11:08:18.767Z,7.43
2018-11-25T11:10:48.071Z,7.30
2018-11-25T11:13:17.368Z,6.60
2018-11-25T11:15:47.109Z,7.25
2018-11-25T11:18:16.386Z,7.32
2018-11-25T11:20:45.896Z,7.29
2018-11-25T11:23:15.375Z,7.31
2018-11-25T11:25:44.899Z,7.41
2018-11-25T11:28:14.424Z,7.50
2018-11-25T11:30:43.875Z,7.55
2018-11-25T11:33:13.631Z,7.57
2018-11-25T11:35:43.076Z,7.57
2018-11-25T11:38:12.640Z,7.61
2018-11-25T11:40:42.135Z,7.62
2018-11-25T11:43:11.648Z,7.79
2018-11-25T11:45:41.119Z,7.85
2018-11-25T11:48:10.675Z,7.41
2018-11-25T11:50:39.913Z,7.12
2018-11-25T11:53:09.670Z,7.52
2018-11-25T11:55:39.162Z,7.58
2018-11-25T11:58:08.523Z,7.70
2018-11-25T12:00:37.996Z,7.55
2018-11-25T12:03:07.520Z,7.60
2018-11-25T12:05:36.899Z,7.60
2018-11-25T12:08:06.831Z,7.64
2018-11-25T12:10:36.192Z,7.60
2018-11-25T12:13:06.545Z,7.79
2018-11-25T12:15:36.024Z,7.76
2018-11-25T12:18:06.135Z,7.73
2018-11-25T12:20:35.672Z,7.72
2018-11-25T12:23:05.753Z,7.71
2018-11-25T12:25:35.275Z,7.61
2018-11-25T12:28:04.775Z,7.76
2018-11-25T12:30:34.586Z,7.61
2018-11-25T12:33:05.011Z,7.63
2018-11-25T12:35:34.516Z,7.64
2018-11-25T12:38:04.000Z,7.54
2018-11-25T12:40:33.576Z,7.80
2018-11-25T12:43:03.852Z,7.87
2018-11-25T12:45:33.568Z,7.74
2018-11-25T12:48:03.330Z,7.51
2018-11-25T12:50:32.810Z,7.54
2018-11-25T12:53:02.609Z,7.55
2018-11-25T12:55:32.346Z,7.61
2018-11-25T12:58:01.844Z,7.49
2018-11-25T13:00:34.033Z,7.45
2018-11-25T13:03:03.523Z,7.77
2018-11-25T13:05:32.887Z,7.94
2018-11-25T13:08:02.585Z,8.10
2018-11-25T13:10:32.076Z,8.20
2018-11-25T13:13:01.401Z,8.34
2018-11-25T13:15:30.905Z,8.28
2018-11-25T13:18:00.399Z,8.11
2018-11-25T13:20:29.892Z,8.28
2018-11-25T13:22:59.149Z,8.27
2018-11-25T13:25:28.552Z,8.16
2018-11-25T13:27:58.011Z,8.24
2018-11-25T13:30:29.993Z,8.26
2018-11-25T13:33:00.557Z,8.16
2018-11-25T13:35:36.553Z,8.22
2018-11-25T13:38:07.221Z,8.29
2018-11-25T13:40:36.569Z,8.16
2018-11-25T13:43:06.702Z,8.05
2018-11-25T13:45:36.177Z,7.88
2018-11-25T13:48:05.912Z,7.81
2018-11-25T13:50:35.828Z,7.56
2018-11-25T13:53:05.538Z,7.31
2018-11-25T13:55:34.762Z,7.40
2018-11-25T13:58:04.193Z,7.67
2018-11-25T14:00:44.688Z,7.59
2018-11-25T14:03:17.555Z,7.57
2018-11-25T14:05:53.179Z,7.53
2018-11-25T14:08:16.498Z,7.47
2018-11-25T14:10:46.374Z,7.38
2018-11-25T14:13:15.715Z,7.40
2018-11-25T14:15:45.033Z,7.45
2018-11-25T14:18:14.313Z,7.52
2018-11-25T14:20:43.825Z,7.69
2018-11-25T14:23:13.306Z,7.78
2018-11-25T14:25:42.468Z,7.62
2018-11-25T14:28:13.155Z,7.70
2018-11-25T14:30:42.626Z,7.78
2018-11-25T14:33:12.872Z,7.62
2018-11-25T14:35:42.519Z,7.55
2018-11-25T14:38:11.942Z,7.78
2018-11-25T14:40:41.759Z,7.63
2018-11-25T14:43:10.925Z,7.49
2018-11-25T14:45:40.268Z,7.47
2018-11-25T14:48:09.427Z,7.72
2018-11-25T14:50:38.602Z,7.72
2018-11-25T14:53:07.991Z,7.70
2018-11-25T14:55:37.277Z,7.71
2018-11-25T14:58:07.673Z,7.63
2018-11-25T15:00:37.138Z,7.70
2018-11-25T15:03:07.791Z,7.66
2018-11-25T15:05:43.798Z,7.67
2018-11-25T15:08:17.227Z,7.60
2018-11-25T15:10:47.060Z,7.58
2018-11-25T15:13:16.485Z,7.65
2018-11-25T15:15:46.015Z,7.63
2018-11-25T15:18:15.783Z,7.49
2018-11-25T15:20:45.884Z,7.53
2018-11-25T15:23:17.048Z,7.51
2018-11-25T15:25:49.356Z,7.53
2018-11-25T15:28:18.974Z,7.25
2018-11-25T15:30:49.020Z,7.54
2018-11-25T15:33:18.743Z,7.54
2018-11-25T15:35:49.426Z,7.57
2018-11-25T15:38:19.109Z,7.53
2018-11-25T15:40:48.702Z,7.54
2018-11-25T15:43:18.747Z,7.43
2018-11-25T15:45:48.489Z,7.35
2018-11-25T15:48:21.095Z,7.38
2018-11-25T15:50:51.272Z,7.24
2018-11-25T15:53:20.928Z,7.28
2018-11-25T15:55:52.155Z,7.17
2018-11-25T15:58:21.574Z,7.12
2018-11-25T16:00:51.059Z,7.10
2018-11-25T16:03:20.790Z,7.12
2018-11-25T16:05:57.407Z,7.09
2018-11-25T16:08:26.960Z,7.17
2018-11-25T16:10:56.458Z,7.12
2018-11-25T16:13:25.693Z,7.17
2018-11-25T16:15:55.134Z,7.12
2018-11-25T16:18:24.597Z,7.20
2018-11-25T16:20:53.821Z,7.21
2018-11-25T16:23:23.568Z,7.14
2018-11-25T16:25:55.150Z,7.15
2018-11-25T16:28:34.499Z,7.16
2018-11-25T16:31:04.030Z,7.19
2018-11-25T16:33:33.452Z,7.16
2018-11-25T16:36:02.993Z,7.20
2018-11-25T16:38:32.271Z,7.12
2018-11-25T16:41:01.781Z,7.31
2018-11-25T16:43:31.265Z,7.29
2018-11-25T16:46:00.787Z,7.13
2018-11-25T16:48:30.282Z,7.24
2018-11-25T16:50:59.816Z,7.21
2018-11-25T16:53:29.310Z,7.25
2018-11-25T16:55:58.977Z,7.21
2018-11-25T16:58:28.340Z,6.94
2018-11-25T17:00:57.831Z,6.90
2018-11-25T17:03:27.373Z,6.93
2018-11-25T17:05:57.137Z,6.88
2018-11-25T17:08:37.209Z,6.87
2018-11-25T17:11:07.473Z,7.02
2018-11-25T17:13:36.840Z,7.48
2018-11-25T17:16:07.597Z,7.12
2018-11-25T17:18:37.476Z,7.08
2018-11-25T17:21:07.014Z,7.34
2018-11-25T17:23:36.498Z,7.55
2018-11-25T17:26:06.411Z,7.41
2018-11-25T17:28:35.868Z,7.26
2018-11-25T17:31:05.109Z,7.19
2018-11-25T17:33:34.601Z,7.19
2018-11-25T17:36:04.195Z,7.38
2018-11-25T17:38:33.724Z,7.49
2018-11-25T17:41:03.009Z,7.26
2018-11-25T17:43:32.525Z,7.12
2018-11-25T17:46:01.793Z,7.03
2018-11-25T17:48:31.176Z,6.98
2018-11-25T17:51:00.618Z,6.93
2018-11-25T17:53:30.282Z,6.86
2018-11-25T17:55:59.532Z,6.88
2018-11-25T17:58:28.952Z,6.87
2018-11-25T18:01:00.927Z,7.05
2018-11-25T18:03:32.649Z,6.92
2018-11-25T18:06:02.104Z,7.00
2018-11-25T18:08:31.927Z,6.89
2018-11-25T18:11:01.130Z,7.05
2018-11-25T18:13:32.658Z,7.11
2018-11-25T18:16:03.757Z,7.05
2018-11-25T18:18:39.268Z,6.63
2018-11-25T18:21:12.676Z,6.93
2018-11-25T18:23:42.148Z,6.93
2018-11-25T18:26:11.497Z,6.96
2018-11-25T18:28:41.209Z,6.88
2018-11-25T18:31:11.697Z,6.89
2018-11-25T18:33:41.484Z,6.88
2018-11-25T18:36:12.907Z,6.85
2018-11-25T18:38:42.282Z,6.86
2018-11-25T18:41:11.776Z,6.79
2018-11-25T18:43:41.070Z,6.71
2018-11-25T18:46:10.334Z,6.68
2018-11-25T18:48:43.391Z,6.63
2018-11-25T18:51:12.582Z,6.64
2018-11-25T18:53:42.417Z,6.63
2018-11-25T18:56:11.963Z,6.63
2018-11-25T18:58:41.260Z,6.64
2018-11-25T19:01:18.293Z,6.64
2018-11-25T19:03:48.011Z,6.67
2018-11-25T19:06:17.484Z,6.62
2018-11-25T19:08:46.995Z,6.59
2018-11-25T19:11:16.473Z,6.60
2018-11-25T19:13:45.982Z,6.64
2018-11-25T19:16:15.169Z,6.66
2018-11-25T19:18:44.690Z,6.59
2018-11-25T19:21:14.174Z,6.54
2018-11-25T19:23:44.917Z,6.50
2018-11-25T19:26:15.352Z,6.47
2018-11-25T19:28:44.652Z,6.55
2018-11-25T19:31:14.019Z,6.49
2018-11-25T19:33:43.490Z,6.54
2018-11-25T19:36:12.950Z,6.53
2018-11-25T19:38:42.267Z,6.49
2018-11-25T19:41:11.767Z,6.44
2018-11-25T19:43:41.026Z,6.39
2018-11-25T19:46:10.678Z,6.35
2018-11-25T19:48:40.347Z,6.31
2018-11-25T19:51:17.266Z,6.29
2018-11-25T19:53:40.380Z,6.37
2018-11-25T19:56:09.597Z,6.30
2018-11-25T19:58:39.604Z,6.37
2018-11-25T20:01:09.314Z,6.36
2018-11-25T20:03:38.966Z,6.34
2018-11-25T20:06:08.808Z,6.44
2018-11-25T20:08:38.285Z,6.33
2018-11-25T20:11:07.879Z,6.34
2018-11-25T20:13:37.386Z,6.30
2018-11-25T20:16:12.066Z,6.35
2018-11-25T20:18:42.491Z,6.37
2018-11-25T20:21:16.529Z,6.41
2018-11-25T20:23:46.142Z,6.44
2018-11-25T20:26:15.581Z,6.40
2018-11-25T20:28:45.148Z,6.46
2018-11-25T20:31:14.731Z,6.44
2018-11-25T20:33:52.199Z,6.37
2018-11-25T20:36:21.020Z,6.44
2018-11-25T20:38:55.568Z,6.38
2018-11-25T20:41:24.879Z,6.52
2018-11-25T20:43:54.209Z,6.57
2018-11-25T20:46:28.822Z,6.44
2018-11-25T20:48:58.313Z,6.43
2018-11-25T20:51:32.942Z,6.48
2018-11-25T20:54:02.259Z,6.59
2018-11-25T20:56:31.716Z,6.39
2018-11-25T20:59:01.047Z,6.45
2018-11-25T21:01:30.357Z,6.35
2018-11-25T21:03:59.833Z,6.11
2018-11-25T21:06:29.112Z,6.24
2018-11-25T21:08:58.680Z,6.28
2018-11-25T21:11:28.133Z,6.36
2018-11-25T21:13:57.451Z,6.37
2018-11-25T21:16:26.941Z,6.65
2018-11-25T21:18:56.250Z,6.68
2018-11-25T21:21:25.579Z,6.83
2018-11-25T21:23:55.045Z,6.89
2018-11-25T21:26:24.214Z,6.70
2018-11-25T21:28:53.686Z,6.72
2018-11-25T21:31:23.152Z,6.77
2018-11-25T21:33:52.512Z,6.83
2018-11-25T21:36:22.084Z,6.79
2018-11-25T21:38:52.102Z,6.82
2018-11-25T21:41:21.381Z,6.83
2018-11-25T21:43:51.062Z,6.71
2018-11-25T21:46:20.253Z,6.67
2018-11-25T21:48:49.872Z,6.29
2018-11-25T21:51:19.431Z,6.78
2018-11-25T21:53:48.890Z,6.66
2018-11-25T21:56:18.091Z,6.63
2018-11-25T21:58:47.626Z,6.46
2018-11-25T22:01:16.841Z,6.57
2018-11-25T22:03:46.125Z,6.47
2018-11-25T22:06:15.501Z,6.52
2018-11-25T22:08:44.904Z,6.50
2018-11-25T22:11:14.222Z,6.34
2018-11-25T22:13:44.372Z,6.33
2018-11-25T22:16:13.835Z,6.45
2018-11-25T22:18:43.320Z,6.50
2018-11-25T22:21:12.651Z,6.39
2018-11-25T22:23:42.379Z,6.45
2018-11-25T22:26:11.870Z,6.41
2018-11-25T22:28:42.233Z,6.36
2018-11-25T22:31:11.443Z,6.35
2018-11-25T22:33:40.818Z,6.42
2018-11-25T22:36:10.315Z,6.32
2018-11-25T22:38:39.848Z,6.32
2018-11-25T22:41:09.528Z,6.31
2018-11-25T22:43:39.037Z,6.30
2018-11-25T22:46:08.523Z,6.38
2018-11-25T22:48:37.825Z,6.44
2018-11-25T22:51:07.220Z,6.41
2018-11-25T22:53:36.647Z,6.36
2018-11-25T22:56:05.908Z,6.56
2018-11-25T22:58:35.251Z,6.55
2018-11-25T23:01:04.527Z,6.51
2018-11-25T23:03:34.063Z,6.35
2018-11-25T23:06:14.524Z,6.33
2018-11-25T23:08:44.140Z,6.42
2018-11-25T23:11:14.160Z,6.46
2018-11-25T23:13:43.590Z,6.36
2018-11-25T23:16:13.142Z,6.35
2018-11-25T23:18:42.527Z,6.27
2018-11-25T23:21:12.379Z,6.17
2018-11-25T23:23:41.775Z,6.03
2018-11-25T23:26:11.251Z,6.03
2018-11-25T23:28:40.778Z,6.05
2018-11-25T23:31:10.271Z,6.16
2018-11-25T23:33:46.360Z,6.31
2018-11-25T23:36:15.849Z,6.29
2018-11-25T23:38:45.314Z,6.32
2018-11-25T23:41:14.845Z,6.42
2018-11-25T23:43:44.353Z,6.39
2018-11-25T23:46:13.921Z,6.38
2018-11-25T23:48:43.341Z,6.35
2018-11-25T23:51:12.926Z,6.25
2018-11-25T23:53:42.581Z,6.25
2018-11-25T23:56:12.113Z,6.23
2018-11-25T23:58:41.568Z,6.21
